Time;durP1;ratioP1;P1;durP2;ratioP2;P2;SDS_P1;SDS_P2;PMS_P1;PMS_P2;Temp;Humidity;BMP_temperature;BMP_pressure;BME280_temperature;BME280_humidity;BME280_pressure;Samples;Min_cycle;Max_cycle;Signal;HPM_P1;HPM_P2
2021/11/30 00:01:00;;;;;;;18.77;8.73;;;5.10;61.90;;;;;;5018767;28;20861;-76
2021/11/30 00:03:26;;;;;;;17.80;8.88;;;5.10;62.10;;;;;;5017627;28;20405;-77
2021/11/30 00:05:51;;;;;;;17.93;9.27;;;5.20;60.50;;;;;;5017427;28;20900;-77
2021/11/30 00:08:19;;;;;;;18.23;8.77;;;5.20;59.30;;;;;;5017027;28;20769;-76
2021/11/30 00:10:45;;;;;;;19.92;9.77;;;5.10;60.60;;;;;;5015416;28;20479;-76
2021/11/30 00:13:19;;;;;;;19.97;9.40;;;5.10;61.00;;;;;;5016139;28;20389;-75
2021/11/30 00:15:47;;;;;;;19.73;10.10;;;5.10;61.20;;;;;;5015457;28;20412;-77
2021/11/30 00:18:13;;;;;;;23.30;11.15;;;5.20;60.30;;;;;;5015162;28;20401;-75
2021/11/30 00:20:41;;;;;;;29.10;11.30;;;5.20;60.30;;;;;;5008431;28;20750;-75
2021/11/30 00:23:07;;;;;;;18.83;11.63;;;5.20;58.50;;;;;;5017514;28;20392;-77
2021/11/30 00:25:34;;;;;;;27.85;13.10;;;5.10;59.90;;;;;;5018573;28;20404;-77
2021/11/30 00:28:00;;;;;;;29.13;14.23;;;5.20;58.10;;;;;;5016464;28;20798;-76
2021/11/30 00:30:26;;;;;;;24.92;13.48;;;5.10;58.00;;;;;;5017493;28;20717;-75
2021/11/30 00:32:53;;;;;;;27.65;14.25;;;5.10;58.00;;;;;;5015697;28;20409;-77
2021/11/30 00:35:19;;;;;;;28.98;15.38;;;5.10;56.90;;;;;;5030403;28;20470;-77
2021/11/30 00:37:45;;;;;;;29.42;16.23;;;5.10;56.90;;;;;;5015124;28;20397;-76
2021/11/30 00:40:11;;;;;;;30.52;15.65;;;5.10;56.60;;;;;;5015076;28;20413;-77
2021/11/30 00:42:37;;;;;;;31.30;17.08;;;5.10;56.90;;;;;;5013681;28;20397;-75
2021/11/30 00:45:08;;;;;;;23.47;13.53;;;5.10;56.60;;;;;;5015210;28;20889;-76
2021/11/30 00:47:37;;;;;;;28.02;14.60;;;5.10;54.10;;;;;;5015623;28;20407;-78
2021/11/30 00:50:05;;;;;;;29.38;15.30;;;5.10;55.30;;;;;;5015486;28;20385;-77
2021/11/30 00:52:31;;;;;;;24.77;14.05;;;5.00;55.30;;;;;;5014575;28;20416;-75
2021/11/30 00:54:57;;;;;;;30.02;13.60;;;5.10;55.70;;;;;;5015935;28;20769;-76
2021/11/30 00:57:23;;;;;;;31.83;14.48;;;5.10;54.30;;;;;;5014002;28;20413;-77
2021/11/30 00:59:51;;;;;;;26.60;14.25;;;5.00;54.90;;;;;;5018079;28;20424;-76
2021/11/30 01:02:17;;;;;;;26.02;13.02;;;5.00;55.40;;;;;;5038402;28;20805;-77
2021/11/30 01:04:43;;;;;;;27.90;13.20;;;5.10;54.80;;;;;;5015328;28;20392;-77
2021/11/30 01:07:10;;;;;;;19.98;12.23;;;5.00;54.40;;;;;;5016540;28;20400;-76
2021/11/30 01:09:37;;;;;;;27.45;13.18;;;5.10;54.50;;;;;;5018931;28;20986;-76
2021/11/30 01:12:03;;;;;;;27.10;12.68;;;5.00;55.00;;;;;;5019567;28;20400;-75
2021/11/30 01:14:28;;;;;;;26.30;14.10;;;5.00;54.30;;;;;;5019412;28;20893;-74
2021/11/30 01:16:54;;;;;;;28.40;14.20;;;5.10;54.30;;;;;;5017515;28;20401;-77
2021/11/30 01:19:19;;;;;;;31.00;15.27;;;5.00;53.40;;;;;;5009947;28;20418;-77
2021/11/30 01:21:45;;;;;;;27.98;13.43;;;5.00;53.70;;;;;;5011610;28;20398;-73
2021/11/30 01:24:11;;;;;;;29.10;15.30;;;5.10;52.00;;;;;;5017099;28;20442;-75
2021/11/30 01:26:37;;;;;;;28.92;15.07;;;5.10;52.50;;;;;;5015391;28;20804;-75
2021/11/30 01:29:04;;;;;;;30.23;15.27;;;5.10;52.90;;;;;;5015023;28;20393;-75
2021/11/30 01:31:29;;;;;;;35.45;15.63;;;5.00;52.70;;;;;;5015779;28;20462;-75
2021/11/30 01:33:55;;;;;;;33.13;15.40;;;5.10;51.70;;;;;;5018377;28;20860;-73
2021/11/30 01:36:22;;;;;;;23.80;13.30;;;5.10;50.30;;;;;;5019247;28;20405;-75
2021/11/30 01:38:48;;;;;;;29.17;13.90;;;5.10;50.10;;;;;;5017921;28;20416;-75
2021/11/30 01:41:14;;;;;;;30.10;12.90;;;5.10;49.50;;;;;;5018120;28;20393;-75
2021/11/30 01:43:42;;;;;;;21.23;12.00;;;5.00;50.40;;;;;;5018935;28;20397;-74
2021/11/30 01:46:15;;;;;;;26.80;11.93;;;5.10;49.50;;;;;;5034931;28;20392;-74
2021/11/30 01:51:26;;;;;;;23.25;10.68;;;5.10;48.60;;;;;;5016258;23;20785;-76
2021/11/30 01:53:54;;;;;;;23.55;10.40;;;5.20;47.40;;;;;;5009492;28;20848;-76
2021/11/30 01:56:20;;;;;;;22.92;9.88;;;5.10;47.40;;;;;;5012597;28;20393;-77
2021/11/30 01:58:47;;;;;;;27.85;10.30;;;5.10;46.60;;;;;;5016600;28;20404;-76
2021/11/30 02:01:13;;;;;;;22.95;10.23;;;5.10;45.70;;;;;;5010548;28;20394;-77
2021/11/30 02:03:40;;;;;;;28.07;10.07;;;5.20;44.60;;;;;;4998069;28;20469;-75
2021/11/30 02:06:06;;;;;;;25.57;10.03;;;5.20;44.00;;;;;;4992567;28;20437;-78
2021/11/30 02:08:32;;;;;;;20.30;9.80;;;5.20;42.70;;;;;;4992369;28;20761;-75
2021/11/30 02:10:57;;;;;;;20.85;9.25;;;5.20;43.70;;;;;;4992928;28;20391;-75
2021/11/30 02:13:24;;;;;;;20.85;9.02;;;5.20;44.20;;;;;;4992017;28;20806;-76
2021/11/30 02:15:54;;;;;;;18.52;9.00;;;5.20;43.70;;;;;;4981358;28;20401;-75
2021/11/30 02:18:23;;;;;;;18.63;7.90;;;5.30;42.80;;;;;;4993363;28;20402;-77
2021/11/30 02:20:58;;;;;;;24.35;8.80;;;5.30;42.80;;;;;;4995316;28;20414;-77
2021/11/30 02:25:58;;;;;;;14.90;7.43;;;5.20;46.30;;;;;;4991967;28;20461;-76
2021/11/30 02:28:23;;;;;;;22.52;8.52;;;5.20;46.00;;;;;;4991561;28;20390;-76
2021/11/30 02:30:49;;;;;;;16.37;6.90;;;5.20;45.90;;;;;;4991817;28;20759;-76
2021/11/30 02:33:15;;;;;;;13.88;6.68;;;5.20;46.00;;;;;;4992064;28;20420;-77
2021/11/30 02:35:40;;;;;;;16.80;6.95;;;5.20;47.00;;;;;;4992230;28;20413;-76
2021/11/30 02:38:08;;;;;;;14.18;6.80;;;5.20;48.80;;;;;;4991939;28;20478;-77
2021/11/30 02:40:35;;;;;;;16.40;6.72;;;5.20;49.80;;;;;;4991192;28;20413;-76
2021/11/30 02:43:02;;;;;;;16.83;6.72;;;5.20;51.10;;;;;;4992107;28;20477;-76
2021/11/30 02:45:28;;;;;;;17.48;6.45;;;5.10;50.70;;;;;;4992329;28;20393;-76
2021/11/30 02:47:53;;;;;;;14.87;6.60;;;5.10;54.10;;;;;;4991779;28;20387;-76
2021/11/30 02:50:19;;;;;;;12.98;6.40;;;5.00;53.60;;;;;;4992022;28;20871;-76
2021/11/30 02:52:45;;;;;;;12.73;6.20;;;4.90;56.90;;;;;;4991217;28;20497;-76
2021/11/30 02:55:10;;;;;;;13.90;6.70;;;4.90;56.90;;;;;;4992134;28;20402;-75
2021/11/30 02:57:36;;;;;;;9.63;5.20;;;4.90;59.20;;;;;;4991883;28;20409;-74
2021/11/30 03:00:06;;;;;;;14.83;5.90;;;4.90;57.80;;;;;;4992543;28;20882;-77
2021/11/30 03:02:32;;;;;;;10.27;5.43;;;4.80;59.30;;;;;;4991958;28;20758;-77
2021/11/30 03:05:00;;;;;;;10.02;6.53;;;4.70;61.10;;;;;;4991983;28;20386;-77
2021/11/30 03:07:27;;;;;;;11.10;6.10;;;4.70;65.30;;;;;;4992326;28;20812;-77
2021/11/30 03:09:53;;;;;;;11.02;5.50;;;4.70;64.30;;;;;;4993136;28;20409;-77
2021/11/30 03:12:19;;;;;;;11.27;5.40;;;4.60;64.80;;;;;;4995432;28;20402;-74
2021/11/30 03:14:45;;;;;;;10.10;5.15;;;4.60;67.20;;;;;;4998514;28;20493;-77
2021/11/30 03:17:12;;;;;;;7.80;5.03;;;4.60;66.70;;;;;;4995887;28;20437;-76
2021/11/30 03:19:38;;;;;;;11.50;5.30;;;4.60;67.00;;;;;;4992512;28;20410;-77
2021/11/30 03:22:04;;;;;;;8.55;5.07;;;4.60;67.20;;;;;;4992769;28;20396;-77
2021/11/30 03:24:30;;;;;;;11.35;4.95;;;4.50;68.30;;;;;;4991810;28;20401;-77
2021/11/30 03:26:56;;;;;;;10.80;4.90;;;4.60;66.20;;;;;;4998695;28;20931;-75
2021/11/30 03:29:22;;;;;;;6.20;5.00;;;4.50;67.50;;;;;;4992305;28;20463;-76
2021/11/30 03:31:51;;;;;;;6.70;4.90;;;4.50;68.50;;;;;;4991208;28;20477;-77
2021/11/30 03:34:22;;;;;;;8.52;5.07;;;4.50;68.10;;;;;;4992224;28;20394;-77
2021/11/30 03:36:54;;;;;;;9.80;5.35;;;4.50;70.40;;;;;;4994796;28;20428;-77
2021/11/30 03:39:23;;;;;;;10.15;4.80;;;4.50;71.90;;;;;;4995255;28;20411;-77
2021/11/30 03:41:52;;;;;;;8.90;5.10;;;4.60;71.00;;;;;;4995118;28;20532;-77
2021/11/30 03:44:19;;;;;;;12.97;4.83;;;4.60;71.80;;;;;;4996170;28;20469;-77
2021/11/30 03:46:44;;;;;;;7.93;5.40;;;4.60;72.20;;;;;;5001183;28;20859;-77
2021/11/30 03:49:12;;;;;;;10.80;5.00;;;4.60;73.60;;;;;;4992659;28;20391;-76
2021/11/30 03:51:38;;;;;;;10.35;5.10;;;4.60;77.10;;;;;;4991482;28;20413;-77
2021/11/30 03:54:05;;;;;;;10.10;5.60;;;4.50;80.20;;;;;;4992326;28;20449;-76
2021/11/30 03:56:31;;;;;;;9.52;5.70;;;4.60;81.10;;;;;;4994425;28;20396;-76
2021/11/30 03:58:57;;;;;;;9.75;5.57;;;4.60;81.50;;;;;;4996805;28;20405;-76
2021/11/30 04:01:23;;;;;;;11.80;5.63;;;4.70;81.70;;;;;;4997640;28;20394;-77
2021/11/30 04:03:48;;;;;;;9.25;5.57;;;4.70;83.00;;;;;;5003478;28;20779;-76
2021/11/30 04:06:14;;;;;;;7.88;5.32;;;4.60;84.80;;;;;;4998962;28;20424;-77
2021/11/30 04:08:40;;;;;;;10.98;5.70;;;4.70;85.30;;;;;;4999372;28;20386;-77
2021/11/30 04:11:07;;;;;;;8.32;6.10;;;4.70;86.40;;;;;;5002026;28;20406;-77
2021/11/30 04:13:33;;;;;;;10.15;5.97;;;4.80;86.80;;;;;;5003315;28;20410;-77
2021/11/30 04:15:58;;;;;;;8.57;5.95;;;4.70;86.40;;;;;;5002558;28;20390;-76
2021/11/30 04:18:24;;;;;;;12.07;6.20;;;4.70;88.50;;;;;;5002934;28;20823;-77
2021/11/30 04:20:50;;;;;;;11.00;6.00;;;4.70;89.90;;;;;;5002490;28;20414;-77
2021/11/30 04:23:16;;;;;;;10.35;5.88;;;4.80;91.20;;;;;;5000542;28;20720;-76
2021/11/30 04:25:42;;;;;;;11.02;6.45;;;4.80;88.60;;;;;;4997477;28;20386;-76
2021/11/30 04:28:07;;;;;;;8.40;5.70;;;4.90;88.60;;;;;;4999086;28;20473;-77
2021/11/30 04:30:33;;;;;;;7.43;6.03;;;4.90;88.00;;;;;;4997690;28;20406;-77
2021/11/30 04:32:59;;;;;;;11.43;6.32;;;4.90;87.90;;;;;;4997846;28;20395;-76
2021/11/30 04:35:26;;;;;;;11.52;6.43;;;4.90;88.70;;;;;;4997369;28;20395;-77
2021/11/30 04:37:51;;;;;;;11.18;6.47;;;5.00;89.30;;;;;;4996219;28;20497;-77
2021/11/30 04:40:17;;;;;;;8.00;6.27;;;5.10;88.30;;;;;;5004549;28;20441;-76
2021/11/30 04:42:45;;;;;;;7.53;5.80;;;5.00;88.70;;;;;;4999726;28;20398;-75
2021/11/30 04:45:20;;;;;;;8.55;5.53;;;5.10;87.60;;;;;;4999601;28;20498;-76
2021/11/30 04:47:47;;;;;;;6.72;5.57;;;5.20;87.40;;;;;;5001396;28;20390;-74
2021/11/30 04:50:20;;;;;;;5.50;4.97;;;5.20;87.60;;;;;;5007497;28;20390;-77
2021/11/30 04:52:48;;;;;;;6.93;5.05;;;5.30;86.20;;;;;;5002276;28;20461;-76
2021/11/30 04:55:14;;;;;;;8.95;5.32;;;5.30;86.20;;;;;;5001411;28;20414;-76
2021/11/30 04:57:40;;;;;;;5.47;4.88;;;5.30;88.20;;;;;;5002085;28;20399;-76
2021/11/30 05:00:06;;;;;;;6.57;5.47;;;5.30;88.60;;;;;;5000742;28;20413;-76
2021/11/30 05:02:32;;;;;;;5.72;4.80;;;5.40;86.70;;;;;;4999046;28;20488;-76
2021/11/30 05:04:58;;;;;;;5.97;5.20;;;5.40;87.50;;;;;;4998286;28;20844;-76
2021/11/30 05:07:23;;;;;;;6.20;5.15;;;5.50;86.40;;;;;;4996832;28;20379;-77
2021/11/30 05:09:49;;;;;;;4.70;4.30;;;5.50;86.40;;;;;;4996025;28;20458;-76
2021/11/30 05:12:14;;;;;;;5.45;4.50;;;5.50;85.60;;;;;;4997011;28;20405;-76
2021/11/30 05:14:40;;;;;;;5.68;4.13;;;5.60;85.40;;;;;;5000243;28;20868;-77
2021/11/30 05:17:06;;;;;;;4.80;4.00;;;5.70;83.70;;;;;;5001127;28;20544;-77
2021/11/30 05:19:31;;;;;;;5.13;4.63;;;5.60;84.90;;;;;;5010315;28;20474;-76
2021/11/30 05:21:57;;;;;;;4.50;3.97;;;5.70;84.80;;;;;;5010348;28;20783;-76
2021/11/30 05:24:22;;;;;;;4.50;4.10;;;5.70;83.40;;;;;;5006749;28;20716;-76
2021/11/30 05:26:49;;;;;;;8.40;4.10;;;5.80;83.30;;;;;;5005624;28;20419;-76
2021/11/30 05:29:15;;;;;;;4.88;3.67;;;5.80;83.20;;;;;;5004742;28;20395;-77
2021/11/30 05:31:41;;;;;;;4.15;3.85;;;5.80;82.80;;;;;;5003255;28;20393;-76
2021/11/30 05:34:07;;;;;;;5.13;4.35;;;5.80;84.70;;;;;;4999228;28;20422;-77
2021/11/30 05:36:33;;;;;;;6.73;4.50;;;5.80;85.40;;;;;;4999537;28;20391;-76
2021/11/30 05:39:00;;;;;;;5.00;4.60;;;5.80;86.50;;;;;;5003335;28;20406;-76
2021/11/30 05:41:26;;;;;;;5.17;4.10;;;5.90;87.60;;;;;;5003576;28;20871;-76
2021/11/30 05:43:52;;;;;;;5.00;4.60;;;5.90;88.10;;;;;;5002616;28;20404;-75
2021/11/30 05:46:19;;;;;;;6.68;4.75;;;5.90;89.40;;;;;;5002291;28;20386;-78
2021/11/30 05:48:45;;;;;;;6.43;4.80;;;5.90;88.70;;;;;;5003221;28;20962;-76
2021/11/30 05:51:11;;;;;;;5.85;5.32;;;5.90;90.20;;;;;;5003561;28;20414;-76
2021/11/30 05:53:36;;;;;;;5.72;5.13;;;5.90;91.60;;;;;;4996862;28;20398;-76
2021/11/30 05:56:04;;;;;;;5.53;5.00;;;6.00;90.90;;;;;;4995979;28;20391;-77
2021/11/30 05:58:34;;;;;;;5.82;5.32;;;6.00;91.20;;;;;;4996417;28;20394;-77
2021/11/30 06:01:04;;;;;;;5.93;5.32;;;6.00;92.20;;;;;;4996171;28;20426;-76
2021/11/30 06:03:34;;;;;;;6.68;5.97;;;6.00;91.80;;;;;;4995126;28;20503;-77
2021/11/30 06:05:59;;;;;;;6.68;5.97;;;6.00;95.10;;;;;;4992865;28;20398;-76
2021/11/30 06:08:25;;;;;;;6.85;6.00;;;6.00;95.50;;;;;;4994017;28;20950;-78
2021/11/30 06:10:51;;;;;;;6.95;5.82;;;6.10;94.90;;;;;;4998706;28;20406;-76
2021/11/30 06:13:17;;;;;;;8.80;6.15;;;6.10;94.30;;;;;;4998856;28;20394;-75
2021/11/30 06:15:43;;;;;;;6.90;5.63;;;6.10;94.60;;;;;;5001857;28;20409;-77
2021/11/30 06:18:09;;;;;;;7.97;6.27;;;6.10;95.80;;;;;;5011663;28;20400;-77
2021/11/30 06:20:35;;;;;;;6.75;6.10;;;6.20;95.10;;;;;;4999551;28;20418;-77
2021/11/30 06:23:01;;;;;;;6.80;6.10;;;6.20;95.00;;;;;;5000337;28;20578;-77
2021/11/30 06:25:27;;;;;;;6.90;6.20;;;6.20;95.60;;;;;;4998822;28;20437;-76
2021/11/30 06:27:53;;;;;;;8.10;6.38;;;6.20;95.90;;;;;;4998425;28;20498;-77
2021/11/30 06:30:19;;;;;;;7.28;6.57;;;6.30;95.70;;;;;;5000108;28;20410;-76
2021/11/30 06:32:45;;;;;;;7.78;6.75;;;6.30;94.00;;;;;;4995763;28;20474;-77
2021/11/30 06:35:11;;;;;;;8.63;6.80;;;6.40;94.40;;;;;;4996185;28;20422;-77
2021/11/30 06:37:36;;;;;;;7.87;7.07;;;6.40;94.00;;;;;;4994477;28;20395;-77
2021/11/30 06:40:03;;;;;;;8.20;6.63;;;6.40;94.50;;;;;;4992420;28;20527;-77
2021/11/30 06:42:29;;;;;;;12.15;7.65;;;6.40;95.90;;;;;;4992876;28;20394;-77
2021/11/30 06:44:54;;;;;;;8.57;7.32;;;6.40;97.00;;;;;;4995611;28;20390;-77
2021/11/30 06:47:20;;;;;;;7.78;6.70;;;6.50;96.70;;;;;;5000489;28;20409;-78
2021/11/30 06:49:45;;;;;;;7.40;6.60;;;6.50;96.20;;;;;;5006686;28;20458;-75
2021/11/30 06:52:11;;;;;;;7.90;7.10;;;6.50;96.10;;;;;;5005480;28;20612;-76
2021/11/30 06:54:43;;;;;;;9.10;7.60;;;6.50;97.90;;;;;;5005097;28;20393;-75
2021/11/30 06:57:09;;;;;;;9.05;7.30;;;6.50;97.50;;;;;;5004860;28;20398;-75
2021/11/30 06:59:35;;;;;;;10.17;7.73;;;6.60;98.90;;;;;;5004750;28;20426;-75
2021/11/30 07:02:01;;;;;;;13.80;8.52;;;6.60;99.90;;;;;;5003417;28;20398;-75
2021/11/30 07:04:28;;;;;;;9.82;8.30;;;6.50;99.90;;;;;;5000801;28;20426;-76
2021/11/30 07:07:02;;;;;;;12.70;8.63;;;6.60;99.90;;;;;;4997439;28;20386;-76
2021/11/30 07:12:24;;;;;;;10.70;8.23;;;6.60;99.90;;;;;;4997219;28;20394;-78
2021/11/30 07:14:50;;;;;;;11.60;8.40;;;6.70;99.90;;;;;;4982646;28;20403;-77
2021/11/30 07:17:16;;;;;;;10.63;8.40;;;6.70;99.90;;;;;;4986584;28;20406;-75
2021/11/30 07:19:41;;;;;;;11.40;9.50;;;6.70;99.90;;;;;;4997483;28;20410;-76
2021/11/30 07:22:07;;;;;;;9.25;8.05;;;6.80;99.90;;;;;;4998425;28;20401;-78
2021/11/30 07:24:33;;;;;;;10.20;8.50;;;6.80;99.90;;;;;;4999611;28;20387;-77
2021/11/30 07:26:58;;;;;;;9.70;8.70;;;6.80;99.90;;;;;;4996374;28;20394;-75
2021/11/30 07:29:24;;;;;;;12.30;8.60;;;6.80;99.90;;;;;;4997566;28;20476;-76
2021/11/30 07:31:50;;;;;;;12.57;9.13;;;6.90;99.90;;;;;;4999273;28;20456;-76
2021/11/30 07:34:16;;;;;;;9.20;8.00;;;6.90;99.90;;;;;;4999692;28;20453;-77
2021/11/30 07:36:42;;;;;;;10.60;8.10;;;7.00;99.90;;;;;;5003054;28;20963;-75
2021/11/30 07:39:08;;;;;;;8.65;7.60;;;7.00;99.90;;;;;;4998339;28;20394;-76
2021/11/30 07:41:35;;;;;;;8.02;7.22;;;7.00;99.90;;;;;;4997965;28;20394;-77
2021/11/30 07:44:02;;;;;;;9.95;7.65;;;7.00;99.90;;;;;;5001086;28;20389;-76
2021/11/30 07:46:28;;;;;;;10.40;6.80;;;7.10;99.90;;;;;;4995559;28;20515;-79
2021/11/30 07:48:53;;;;;;;8.57;7.67;;;7.10;99.90;;;;;;4997113;28;20422;-76
2021/11/30 07:51:19;;;;;;;10.27;6.63;;;7.10;99.90;;;;;;4997316;28;20400;-77
2021/11/30 07:53:45;;;;;;;6.70;6.10;;;7.20;99.90;;;;;;4995952;28;20819;-75
2021/11/30 07:56:11;;;;;;;7.93;6.30;;;7.20;99.30;;;;;;4995720;28;20505;-75
2021/11/30 07:58:37;;;;;;;9.27;6.82;;;7.20;99.30;;;;;;5002949;28;20406;-75
2021/11/30 08:01:03;;;;;;;8.93;7.13;;;7.30;99.50;;;;;;4996021;28;20410;-75
2021/11/30 08:03:28;;;;;;;8.07;6.70;;;7.20;99.90;;;;;;4999284;28;20404;-77
2021/11/30 08:05:54;;;;;;;8.13;6.20;;;7.30;99.80;;;;;;4998131;28;20386;-75
2021/11/30 08:08:20;;;;;;;8.30;7.03;;;7.40;99.80;;;;;;4996525;28;20386;-74
2021/11/30 08:10:46;;;;;;;7.23;6.53;;;7.40;99.20;;;;;;4994210;28;20470;-74
2021/11/30 08:13:12;;;;;;;10.95;6.85;;;7.50;97.90;;;;;;4997310;28;20390;-75
2021/11/30 08:15:37;;;;;;;7.63;6.70;;;7.50;98.40;;;;;;4991971;28;20410;-75
2021/11/30 08:18:04;;;;;;;11.35;7.32;;;7.50;97.80;;;;;;5000650;28;20898;-75
2021/11/30 08:20:31;;;;;;;9.82;7.30;;;7.50;98.40;;;;;;5000777;28;20417;-76
2021/11/30 08:22:57;;;;;;;6.97;6.28;;;7.50;97.60;;;;;;5004384;28;20382;-75
2021/11/30 08:25:23;;;;;;;8.52;7.00;;;7.50;97.90;;;;;;5004067;28;20454;-75
2021/11/30 08:27:49;;;;;;;7.90;7.10;;;7.50;99.50;;;;;;4996858;28;20402;-75
2021/11/30 08:30:15;;;;;;;10.63;6.70;;;7.50;99.90;;;;;;4998529;28;20424;-74
2021/11/30 08:32:41;;;;;;;10.32;6.35;;;7.60;99.90;;;;;;4996729;28;20498;-76
2021/11/30 08:35:08;;;;;;;7.97;6.15;;;7.60;99.30;;;;;;4998262;28;20398;-72
2021/11/30 08:37:34;;;;;;;8.70;5.90;;;7.70;99.90;;;;;;5000085;28;20379;-75
2021/11/30 08:39:59;;;;;;;6.20;5.60;;;7.70;99.90;;;;;;5000979;28;20421;-75
2021/11/30 08:42:25;;;;;;;7.47;6.00;;;7.70;99.90;;;;;;5008306;28;20771;-75
2021/11/30 08:44:53;;;;;;;6.43;5.80;;;7.70;99.60;;;;;;5006655;28;20929;-75
2021/11/30 08:47:20;;;;;;;8.65;5.72;;;7.80;99.90;;;;;;5007281;28;20898;-74
2021/11/30 08:49:46;;;;;;;7.87;6.07;;;7.80;99.90;;;;;;5010433;28;20418;-76
2021/11/30 08:52:17;;;;;;;5.30;4.80;;;7.80;99.90;;;;;;4997749;28;20418;-79
2021/11/30 08:54:44;;;;;;;6.18;5.57;;;7.80;98.00;;;;;;4999492;28;20462;-73
2021/11/30 08:57:10;;;;;;;7.28;4.80;;;7.80;99.40;;;;;;4997474;28;20410;-76
2021/11/30 08:59:37;;;;;;;5.35;4.85;;;7.80;99.70;;;;;;4999872;28;20410;-76
2021/11/30 09:02:05;;;;;;;6.15;4.50;;;7.90;99.00;;;;;;4994056;28;20402;-76
2021/11/30 09:04:31;;;;;;;4.90;4.40;;;7.90;99.50;;;;;;5001570;28;20402;-76
2021/11/30 09:06:57;;;;;;;6.37;4.40;;;7.90;99.90;;;;;;4999130;28;21192;-76
2021/11/30 09:09:22;;;;;;;5.20;4.40;;;7.90;99.60;;;;;;4994881;28;20469;-75
2021/11/30 09:11:48;;;;;;;4.40;4.00;;;8.00;99.30;;;;;;4998234;28;20456;-75
2021/11/30 09:14:19;;;;;;;3.83;3.53;;;8.00;98.00;;;;;;5003745;28;20469;-74
2021/11/30 09:16:45;;;;;;;4.45;3.67;;;8.00;96.50;;;;;;4999342;28;20527;-75
2021/11/30 09:19:11;;;;;;;4.97;4.47;;;8.10;96.50;;;;;;4993651;28;20394;-76
2021/11/30 09:21:36;;;;;;;5.65;4.00;;;8.10;97.50;;;;;;4995896;28;20421;-74
2021/11/30 09:24:02;;;;;;;4.40;4.00;;;8.10;96.60;;;;;;5011924;28;20388;-74
2021/11/30 09:26:28;;;;;;;4.40;4.00;;;8.10;96.60;;;;;;5021229;28;20399;-75
2021/11/30 09:28:53;;;;;;;4.43;3.93;;;8.20;97.60;;;;;;5015645;28;20483;-75
2021/11/30 09:31:19;;;;;;;4.20;3.90;;;8.20;95.90;;;;;;4995364;28;20410;-75
2021/11/30 09:33:45;;;;;;;6.93;3.70;;;8.30;94.80;;;;;;4996033;28;20429;-76
2021/11/30 09:36:12;;;;;;;4.55;3.88;;;8.30;94.40;;;;;;4996366;28;20403;-76
2021/11/30 09:38:40;;;;;;;4.95;4.22;;;8.30;95.50;;;;;;5009168;28;20399;-75
2021/11/30 09:41:06;;;;;;;6.20;3.90;;;8.30;96.30;;;;;;5005637;28;20406;-76
2021/11/30 09:43:33;;;;;;;4.28;3.88;;;8.40;95.80;;;;;;4996355;28;20783;-75
2021/11/30 09:46:00;;;;;;;5.57;4.80;;;8.40;93.60;;;;;;4994930;28;20517;-75
2021/11/30 09:48:27;;;;;;;5.80;4.40;;;8.40;93.70;;;;;;4994092;28;20437;-75
2021/11/30 09:50:53;;;;;;;6.10;4.70;;;8.50;94.40;;;;;;4994474;28;20413;-76
2021/11/30 09:53:19;;;;;;;4.93;4.43;;;8.50;92.90;;;;;;4993640;28;20481;-75
2021/11/30 09:55:47;;;;;;;5.60;4.72;;;9.70;94.50;;;;;;4992500;28;20493;-76
2021/11/30 09:58:14;;;;;;;5.38;4.70;;;8.50;94.30;;;;;;4995912;28;20417;-76
2021/11/30 10:00:42;;;;;;;5.70;4.50;;;8.60;93.50;;;;;;4994038;28;20421;-76
2021/11/30 10:03:08;;;;;;;5.13;4.32;;;8.60;93.20;;;;;;5003472;28;20402;-76
2021/11/30 10:05:35;;;;;;;5.10;4.60;;;8.60;93.10;;;;;;5009653;28;20396;-76
2021/11/30 10:08:01;;;;;;;5.00;4.60;;;8.60;94.70;;;;;;5003010;28;20888;-76
2021/11/30 10:10:33;;;;;;;7.57;4.60;;;8.70;95.50;;;;;;4990538;28;20421;-75
2021/11/30 10:13:05;;;;;;;4.93;4.53;;;8.80;93.40;;;;;;4989789;28;20506;-76
2021/11/30 10:15:46;;;;;;;5.07;4.68;;;8.80;93.60;;;;;;4999433;28;20505;-75
2021/11/30 10:18:33;;;;;;;5.43;4.80;;;8.80;94.50;;;;;;4991403;28;20424;-74
2021/11/30 10:21:08;;;;;;;6.05;5.45;;;8.80;95.60;;;;;;4983627;28;20482;-75
2021/11/30 10:24:06;;;;;;;6.05;5.47;;;8.80;97.30;;;;;;4992448;28;20414;-77
2021/11/30 10:26:38;;;;;;;5.88;5.28;;;8.80;98.50;;;;;;4994941;28;20406;-75
2021/11/30 10:29:07;;;;;;;5.90;5.40;;;8.90;98.70;;;;;;4991249;28;20465;-77
2021/11/30 10:31:39;;;;;;;7.30;5.72;;;8.90;99.10;;;;;;5001330;28;20392;-76
2021/11/30 10:34:15;;;;;;;7.70;5.67;;;8.90;99.80;;;;;;5009399;28;20460;-74
2021/11/30 10:36:56;;;;;;;6.40;5.80;;;8.90;99.90;;;;;;4993271;28;20409;-75
2021/11/30 10:39:21;;;;;;;6.57;5.70;;;8.90;99.90;;;;;;4989369;28;20419;-76
2021/11/30 10:41:49;;;;;;;7.60;5.70;;;8.90;99.60;;;;;;4980117;28;20398;-75
2021/11/30 10:44:15;;;;;;;7.07;5.90;;;8.90;99.30;;;;;;4993093;28;20888;-76
2021/11/30 10:46:41;;;;;;;7.40;5.97;;;8.90;99.90;;;;;;4996390;28;20406;-76
2021/11/30 10:49:10;;;;;;;6.75;6.07;;;9.00;99.90;;;;;;4999030;28;20450;-76
2021/11/30 10:51:53;;;;;;;7.10;6.38;;;9.10;99.90;;;;;;4995173;28;20464;-73
2021/11/30 10:54:21;;;;;;;6.90;5.72;;;9.10;99.90;;;;;;4995213;28;20823;-75
2021/11/30 10:57:00;;;;;;;7.05;6.35;;;9.10;99.20;;;;;;4996280;28;20406;-75
2021/11/30 10:59:30;;;;;;;5.40;4.90;;;9.10;99.90;;;;;;4994103;28;20819;-75
2021/11/30 11:01:56;;;;;;;6.00;5.40;;;9.10;99.20;;;;;;4994376;28;20477;-74
2021/11/30 11:04:33;;;;;;;6.50;5.90;;;9.20;98.90;;;;;;4994770;28;20918;-74
2021/11/30 11:07:07;;;;;;;6.10;5.50;;;9.20;99.90;;;;;;4992286;28;20478;-75
2021/11/30 11:09:39;;;;;;;6.00;5.40;;;9.20;99.30;;;;;;4994414;28;20390;-75
2021/11/30 11:12:08;;;;;;;9.63;6.30;;;9.20;99.90;;;;;;4993782;28;20405;-77
2021/11/30 11:14:44;;;;;;;6.10;5.60;;;9.20;99.90;;;;;;4999290;28;20478;-75
2021/11/30 11:17:11;;;;;;;6.30;5.70;;;9.20;99.90;;;;;;4994402;28;21013;-76
2021/11/30 11:19:48;;;;;;;7.18;5.93;;;9.20;99.90;;;;;;4998902;28;20410;-76
2021/11/30 11:22:16;;;;;;;6.78;6.10;;;9.20;99.90;;;;;;4997999;28;20410;-76
2021/11/30 11:24:49;;;;;;;7.00;6.30;;;9.20;99.90;;;;;;5007956;28;20381;-76
2021/11/30 11:27:15;;;;;;;7.28;6.07;;;9.30;99.90;;;;;;5002030;28;20394;-76
2021/11/30 11:29:43;;;;;;;7.40;5.67;;;9.20;99.90;;;;;;4990725;28;20532;-76
2021/11/30 11:32:09;;;;;;;7.20;6.10;;;9.20;99.90;;;;;;4990896;28;20401;-75
2021/11/30 11:34:37;;;;;;;7.50;6.80;;;9.30;99.90;;;;;;4990899;28;20519;-75
2021/11/30 11:37:09;;;;;;;6.70;6.10;;;9.30;99.90;;;;;;4991979;28;20386;-75
2021/11/30 11:39:35;;;;;;;5.88;5.38;;;9.30;99.90;;;;;;4991962;28;20425;-76
2021/11/30 11:42:08;;;;;;;6.43;5.82;;;9.30;99.90;;;;;;4991930;28;20389;-76
2021/11/30 11:44:34;;;;;;;5.32;4.82;;;9.30;99.90;;;;;;4991824;28;20402;-76
2021/11/30 11:47:07;;;;;;;6.20;5.65;;;9.30;99.90;;;;;;4991836;28;20417;-76
2021/11/30 11:49:39;;;;;;;5.45;4.95;;;9.30;99.90;;;;;;4990905;28;20451;-76
2021/11/30 11:52:05;;;;;;;6.00;5.03;;;9.30;99.90;;;;;;4991699;28;20409;-76
2021/11/30 11:54:33;;;;;;;5.65;5.15;;;9.30;99.90;;;;;;4991882;28;20452;-76
2021/11/30 11:57:07;;;;;;;6.00;5.40;;;9.30;99.90;;;;;;4991476;28;20398;-76
2021/11/30 11:59:43;;;;;;;5.75;5.25;;;9.30;99.90;;;;;;4991100;28;20909;-75
2021/11/30 12:02:28;;;;;;;5.10;4.60;;;9.30;99.90;;;;;;5000151;28;20400;-76
2021/11/30 12:05:04;;;;;;;4.80;4.40;;;9.30;99.90;;;;;;5012770;28;20407;-76
2021/11/30 12:07:51;;;;;;;5.50;5.10;;;9.40;99.90;;;;;;4995763;28;20402;-76
2021/11/30 12:10:20;;;;;;;5.10;4.70;;;9.40;99.90;;;;;;4997947;28;20397;-76
2021/11/30 12:13:09;;;;;;;4.90;4.50;;;9.40;99.90;;;;;;4994109;28;20418;-76
2021/11/30 12:15:57;;;;;;;5.20;4.70;;;9.40;99.90;;;;;;5001487;28;20397;-75
2021/11/30 12:18:43;;;;;;;6.30;5.70;;;9.40;99.90;;;;;;5009165;28;20424;-76
2021/11/30 12:21:18;;;;;;;5.78;5.28;;;9.40;99.90;;;;;;4977281;28;20790;-75
2021/11/30 12:23:49;;;;;;;5.22;4.72;;;9.40;99.90;;;;;;4997259;28;20807;-75
2021/11/30 12:26:30;;;;;;;4.25;3.85;;;9.40;99.90;;;;;;5011352;28;20392;-75
2021/11/30 12:28:56;;;;;;;3.97;3.67;;;9.40;99.90;;;;;;4993080;28;20505;-76
2021/11/30 12:31:32;;;;;;;4.10;3.70;;;9.40;99.90;;;;;;5002928;28;20457;-76
2021/11/30 12:33:58;;;;;;;5.85;3.70;;;9.40;99.90;;;;;;4995513;28;20398;-75
2021/11/30 12:36:36;;;;;;;4.30;3.90;;;9.40;99.90;;;;;;4997871;28;20387;-75
2021/11/30 12:39:03;;;;;;;4.20;3.80;;;9.40;99.90;;;;;;4999399;28;20485;-76
2021/11/30 12:41:40;;;;;;;5.45;3.75;;;9.50;99.90;;;;;;4998019;28;20453;-76
2021/11/30 12:44:15;;;;;;;5.18;4.68;;;9.40;99.90;;;;;;4996509;28;20483;-75
2021/11/30 12:46:49;;;;;;;4.80;4.40;;;9.40;99.90;;;;;;4997685;28;20387;-76
2021/11/30 12:49:24;;;;;;;5.50;4.40;;;9.50;99.90;;;;;;4998664;28;20461;-74
2021/11/30 12:52:31;;;;;;;5.22;4.50;;;9.50;99.90;;;;;;4995115;28;20779;-75
2021/11/30 12:55:00;;;;;;;5.50;5.00;;;9.50;99.90;;;;;;4997771;28;20382;-76
2021/11/30 12:57:28;;;;;;;7.07;4.90;;;9.50;99.90;;;;;;4998556;28;20397;-76
2021/11/30 12:59:59;;;;;;;5.78;4.70;;;9.50;99.90;;;;;;4998706;28;20879;-75
2021/11/30 13:02:35;;;;;;;7.22;4.72;;;9.50;99.90;;;;;;4994423;28;20903;-76
2021/11/30 13:05:20;;;;;;;5.78;5.00;;;9.50;99.90;;;;;;4995256;28;20481;-75